createdAt,value
2016-05-30T14:20:46.257Z,92.79
2016-05-30T14:21:46.712Z,93.08
2016-05-30T14:22:47.028Z,91.77
2016-05-30T14:23:46.140Z,88.48
2016-05-30T14:24:45.986Z,86.93
2016-05-30T14:25:46.114Z,86.45
2016-05-30T14:26:45.961Z,86.93
2016-05-30T14:27:46.119Z,88.13
2016-05-30T14:28:46.106Z,85.24
2016-05-30T14:29:46.094Z,83.88
2016-05-30T14:30:46.097Z,84.46
2016-05-30T14:31:45.943Z,85.37
2016-05-30T14:32:46.086Z,85.47
2016-05-30T14:33:45.933Z,85.28
2016-05-30T14:34:46.091Z,85.96
2016-05-30T14:35:46.078Z,83.09
2016-05-30T14:36:46.691Z,83.09
2016-05-30T14:37:46.678Z,83.86
2016-05-30T14:38:46.087Z,83.48
2016-05-30T14:39:46.074Z,81.05
2016-05-30T14:40:46.076Z,82.17
2016-05-30T14:41:46.079Z,78.87
2016-05-30T14:42:46.066Z,81.68
2016-05-30T14:43:46.069Z,77.51
2016-05-30T14:44:46.071Z,79.64
2016-05-30T14:45:46.074Z,80.71
2016-05-30T14:46:46.076Z,81.87
2016-05-30T14:47:46.065Z,81.52
2016-05-30T14:48:46.082Z,76
2016-05-30T14:49:45.912Z,76.39
2016-05-30T14:50:46.072Z,76.19
2016-05-30T14:51:46.075Z,78.52
2016-05-30T14:52:46.531Z,80.26
2016-05-30T14:53:45.924Z,80.55
2016-05-30T14:54:46.083Z,80.85
2016-05-30T14:55:46.086Z,77.75
2016-05-30T14:56:46.072Z,77.59
2016-05-30T14:57:46.075Z,76.14
2016-05-30T14:58:46.094Z,77.01
2016-05-30T14:59:46.097Z,76.23
2016-05-30T15:00:46.099Z,75.94
2016-05-30T15:01:46.102Z,76.62
2016-05-30T15:02:46.089Z,75.07
2016-05-30T15:03:46.091Z,77.01
2016-05-30T15:04:46.094Z,76.04
2016-05-30T15:05:46.096Z,73.26
2016-05-30T15:06:46.115Z,73.42
2016-05-30T15:07:48.711Z,73.61
2016-05-30T15:08:46.121Z,73.77
2016-05-30T15:09:46.358Z,76.19
2016-05-30T15:10:46.219Z,75.81
2016-05-30T15:11:46.129Z,72.06
2016-05-30T15:12:46.115Z,75.16
2016-05-30T15:13:45.962Z,73.42
2016-05-30T15:14:46.152Z,73.9
2016-05-30T15:15:45.968Z,73.65
2016-05-30T15:16:45.985Z,71.12
2016-05-30T15:17:46.113Z,72.45
2016-05-30T15:18:46.131Z,75.26
2016-05-30T15:19:45.993Z,75.16
2016-05-30T15:20:46.122Z,76.04
2016-05-30T15:21:45.984Z,77.36
2016-05-30T15:22:52.064Z,78.23
2016-05-30T15:23:46.020Z,78.03
2016-05-30T15:24:46.131Z,76.58
2016-05-30T15:25:46.151Z,77.61
2016-05-30T15:26:46.122Z,78.34
2016-05-30T15:27:51.047Z,79.32
2016-05-30T15:28:46.143Z,81.25
2016-05-30T15:29:45.973Z,82.28
2016-05-30T15:30:46.133Z,79.85
2016-05-30T15:31:46.135Z,77.44
2016-05-30T15:32:46.139Z,80.2
2016-05-30T15:33:46.125Z,80.74
2016-05-30T15:34:46.144Z,81.9
2016-05-30T15:35:45.989Z,84.13
2016-05-30T15:36:46.133Z,84.71
2016-05-30T15:37:48.324Z,85.48
2016-05-30T15:38:46.123Z,86.06
2016-05-30T15:39:49.032Z,86.35
2016-05-30T15:40:47.253Z,86.55
2016-05-30T15:41:46.130Z,86.79
2016-05-30T15:42:46.118Z,85.97
2016-05-30T15:43:46.121Z,86.99
2016-05-30T15:44:46.108Z,87.76
2016-05-30T15:45:46.111Z,87.51
2016-05-30T15:46:45.957Z,86.83
2016-05-30T15:47:45.943Z,87.23
2016-05-30T15:48:46.088Z,87.23
2016-05-30T15:49:46.090Z,87.03
2016-05-30T15:50:46.093Z,87.13
2016-05-30T15:51:46.079Z,87.23
2016-05-30T15:52:47.973Z,86.93
2016-05-30T15:53:46.085Z,86.45
2016-05-30T15:54:46.073Z,86.25
2016-05-30T15:55:46.090Z,85.77
2016-05-30T15:56:46.078Z,86.2
2016-05-30T15:57:46.065Z,85.04
2016-05-30T15:58:46.083Z,85.18
2016-05-30T15:59:46.055Z,82.76
2016-05-30T16:00:46.057Z,82.6
2016-05-30T16:01:46.059Z,81.77
2016-05-30T16:02:46.062Z,84.3
2016-05-30T16:03:45.893Z,82.94
2016-05-30T16:04:46.052Z,81.68
2016-05-30T16:05:46.040Z,81.13
2016-05-30T16:06:46.027Z,80.65
2016-05-30T16:07:46.044Z,81.23
2016-05-30T16:08:45.860Z,79.04
2016-05-30T16:09:46.035Z,78.75
2016-05-30T16:10:46.022Z,81.76
2016-05-30T16:11:48.352Z,79.63
2016-05-30T16:12:45.996Z,79.1
2016-05-30T16:13:45.857Z,78.33
2016-05-30T16:14:46.002Z,77.75
2016-05-30T16:15:46.004Z,75.74
2016-05-30T16:16:45.991Z,73.96
2016-05-30T16:17:45.977Z,78.81
2016-05-30T16:18:45.980Z,75.09
2016-05-30T16:19:45.968Z,77.03
2016-05-30T16:20:45.971Z,75.96
2016-05-30T16:21:45.973Z,77.42
2016-05-30T16:22:45.820Z,77.12
2016-05-30T16:23:46.072Z,77.12
2016-05-30T16:24:47.935Z,77.32
2016-05-30T16:25:45.953Z,78.29
2016-05-30T16:26:45.956Z,78.09
2016-05-30T16:27:45.959Z,78.77
2016-05-30T16:28:45.789Z,77.61
2016-05-30T16:29:45.931Z,75.96
2016-05-30T16:30:45.934Z,73.48
2016-05-30T16:31:45.937Z,70.63
2016-05-30T16:32:45.940Z,70.7
2016-05-30T16:33:45.911Z,71.56
2016-05-30T16:34:45.931Z,72.4
2016-05-30T16:35:45.917Z,72.21
2016-05-30T16:36:45.903Z,74.24
2016-05-30T16:37:45.750Z,74.38
2016-05-30T16:38:48.238Z,72.83
2016-05-30T16:39:46.787Z,73.41
2016-05-30T16:40:45.899Z,73.31
2016-05-30T16:41:45.886Z,73.64
2016-05-30T16:42:45.888Z,72.63
2016-05-30T16:43:45.892Z,71.99
2016-05-30T16:44:45.879Z,71.5
2016-05-30T16:45:45.882Z,70.15
2016-05-30T16:46:45.884Z,70.7
2016-05-30T16:47:45.871Z,69.43
2016-05-30T16:48:45.874Z,68.95
2016-05-30T16:49:45.877Z,70.18
2016-05-30T16:50:45.863Z,68.95
2016-05-30T16:51:45.866Z,68.91
2016-05-30T16:52:45.869Z,70.56
2016-05-30T16:53:47.387Z,70.27
2016-05-30T16:54:48.984Z,70.66
2016-05-30T16:55:46.299Z,70.18
2016-05-30T16:56:45.865Z,70.37
2016-05-30T16:57:45.851Z,70.37
2016-05-30T16:58:45.854Z,70.86
2016-05-30T16:59:45.856Z,67.91
2016-05-30T17:00:45.859Z,68.11
2016-05-30T17:01:45.861Z,67.4
2016-05-30T17:02:45.849Z,67.69
2016-05-30T17:03:45.852Z,68.62
2016-05-30T17:04:45.854Z,69.59
2016-05-30T17:05:45.842Z,70.26
2016-05-30T17:06:45.844Z,70.26
2016-05-30T17:07:45.878Z,70.84
2016-05-30T17:08:47.193Z,71.97
2016-05-30T17:09:45.836Z,72.26
2016-05-30T17:10:46.386Z,73.03
2016-05-30T17:11:49.077Z,72.94
2016-05-30T17:12:45.829Z,73.32
2016-05-30T17:13:45.832Z,73.8
2016-05-30T17:14:45.850Z,74.06
2016-05-30T17:15:45.822Z,75.51
2016-05-30T17:16:45.809Z,74
2016-05-30T17:17:45.671Z,73
2016-05-30T17:18:45.799Z,72.71
2016-05-30T17:19:45.801Z,73.38
2016-05-30T17:20:45.788Z,73.48
2016-05-30T17:21:45.775Z,74.06
2016-05-30T17:22:45.777Z,74.44
2016-05-30T17:23:47.562Z,74.06
2016-05-30T17:24:47.283Z,75.02
2016-05-30T17:25:45.770Z,75.02
2016-05-30T17:26:45.757Z,73.73
2016-05-30T17:27:45.760Z,74.12
2016-05-30T17:28:45.590Z,74.69
2016-05-30T17:29:45.750Z,74.31
2016-05-30T17:30:45.737Z,73.93
2016-05-30T17:31:45.740Z,73.93
2016-05-30T17:32:45.726Z,74.51
2016-05-30T17:33:45.729Z,74.6
2016-05-30T17:34:45.559Z,75.57
2016-05-30T17:35:45.703Z,75.18
2016-05-30T17:36:45.706Z,75.67
2016-05-30T17:37:45.693Z,75.85
2016-05-30T17:38:45.540Z,75.85
2016-05-30T17:39:45.683Z,75.27
2016-05-30T17:40:45.686Z,74.89
2016-05-30T17:41:45.688Z,75.05
2016-05-30T17:42:45.660Z,73.79
2016-05-30T17:43:45.708Z,74.57
2016-05-30T17:44:45.493Z,73.6
2016-05-30T17:45:45.652Z,74.66
2016-05-30T17:46:45.639Z,74.66
2016-05-30T17:47:45.642Z,75.24
2016-05-30T17:48:45.629Z,75.34
2016-05-30T17:49:45.632Z,75.14
2016-05-30T17:50:45.619Z,75.14
2016-05-30T17:51:45.606Z,75.2
2016-05-30T17:52:45.702Z,77.71
2016-05-30T17:53:45.611Z,78.58
2016-05-30T17:54:45.582Z,78.09
2016-05-30T17:55:45.585Z,78.09
2016-05-30T17:56:45.587Z,79.74
2016-05-30T17:57:45.576Z,80.31
2016-05-30T17:58:45.579Z,81.09
2016-05-30T17:59:45.565Z,81.37
2016-05-30T18:00:45.551Z,80.22
2016-05-30T18:01:47.805Z,79.44
2016-05-30T18:02:45.541Z,81.27
2016-05-30T18:03:45.528Z,81.18
2016-05-30T18:04:45.531Z,80.12
2016-05-30T18:05:45.518Z,81.27
2016-05-30T18:06:47.209Z,81.37
2016-05-30T18:07:45.508Z,81.14
2016-05-30T18:08:45.511Z,80.37
2016-05-30T18:09:45.498Z,82.49
2016-05-30T18:10:45.516Z,82.2
2016-05-30T18:11:45.472Z,81.52
2016-05-30T18:12:45.475Z,80.18
2016-05-30T18:13:45.462Z,80.46
2016-05-30T18:14:45.449Z,81.52
2016-05-30T18:15:45.467Z,81.72
2016-05-30T18:16:45.438Z,81.91
2016-05-30T18:17:45.442Z,80.46
2016-05-30T18:18:45.427Z,80.56
2016-05-30T18:19:45.447Z,81.43
2016-05-30T18:20:45.418Z,80.46
2016-05-30T18:21:45.421Z,81.81
2016-05-30T18:22:45.674Z,82.59
2016-05-30T18:23:45.395Z,83.45
2016-05-30T18:24:45.398Z,84.03
2016-05-30T18:25:45.385Z,84.03
2016-05-30T18:26:45.372Z,83.74
2016-05-30T18:27:45.218Z,84.22
2016-05-30T18:28:45.362Z,84.22
2016-05-30T18:29:45.349Z,84.42
2016-05-30T18:30:45.195Z,84.03
2016-05-30T18:31:45.338Z,84.18
2016-05-30T18:32:45.341Z,84.76
2016-05-30T18:33:45.328Z,86.01
2016-05-30T18:34:45.159Z,86.98
2016-05-30T18:35:45.318Z,86.88
2016-05-30T18:36:45.149Z,87.55
2016-05-30T18:37:45.339Z,87.36
2016-05-30T18:38:45.294Z,87.84
2016-05-30T18:39:45.282Z,87.65
2016-05-30T18:40:45.269Z,87.94
2016-05-30T18:41:45.255Z,88.04
2016-05-30T18:42:45.259Z,88.42
2016-05-30T18:43:45.245Z,88.85
2016-05-30T18:44:45.248Z,88.76
2016-05-30T18:45:45.236Z,89.19
2016-05-30T18:46:45.239Z,89.63
2016-05-30T18:47:45.225Z,89.53
2016-05-30T18:48:45.056Z,90.01
2016-05-30T18:49:45.216Z,90.2
2016-05-30T18:50:45.186Z,89.92
2016-05-30T18:51:45.049Z,90.01
2016-05-30T18:52:45.708Z,90.2
2016-05-30T18:53:45.585Z,90.01
2016-05-30T18:54:45.166Z,90.5
2016-05-30T18:55:45.152Z,90.69
2016-05-30T18:56:45.140Z,90.4
2016-05-30T18:57:45.142Z,90.5
2016-05-30T18:58:45.145Z,90.3
2016-05-30T18:59:45.133Z,90.06
2016-05-30T19:00:45.120Z,90.16
2016-05-30T19:01:45.107Z,89.78
2016-05-30T19:02:45.093Z,89.01
2016-05-30T19:03:45.096Z,88.71
2016-05-30T19:04:45.098Z,89.24
2016-05-30T19:05:45.086Z,88.91
2016-05-30T19:06:45.073Z,89.29
2016-05-30T19:07:45.060Z,88.33
2016-05-30T19:08:45.250Z,88.24
2016-05-30T19:09:45.065Z,86.65
2016-05-30T19:10:44.881Z,86.41
2016-05-30T19:11:45.039Z,87.18
2016-05-30T19:12:45.012Z,86.12
2016-05-30T19:13:45.014Z,85.64
2016-05-30T19:14:45.001Z,86.16
2016-05-30T19:15:44.989Z,85.25
2016-05-30T19:16:44.991Z,84.97
2016-05-30T19:17:44.977Z,84.67
2016-05-30T19:18:44.980Z,84.58
2016-05-30T19:19:44.967Z,85.68
2016-05-30T19:20:44.955Z,85.74
2016-05-30T19:21:44.942Z,85.78
2016-05-30T19:22:45.616Z,85.64
2016-05-30T19:23:44.932Z,85.35
2016-05-30T19:24:44.919Z,85.44
2016-05-30T19:25:44.938Z,85.54
2016-05-30T19:26:44.908Z,86.02
2016-05-30T19:27:44.910Z,86.22
2016-05-30T19:28:44.899Z,86.6
2016-05-30T19:29:44.885Z,86.51
2016-05-30T19:30:44.715Z,86.69
2016-05-30T19:31:44.860Z,87.76
2016-05-30T19:32:44.862Z,88.04
2016-05-30T19:33:44.849Z,88.14
2016-05-30T19:34:44.836Z,88.33
2016-05-30T19:35:45.026Z,87.66
2016-05-30T19:36:44.826Z,87.76
2016-05-30T19:37:45.625Z,86.41
2016-05-30T19:38:44.660Z,87.37
2016-05-30T19:39:44.803Z,87.46
2016-05-30T19:40:44.790Z,87.37
2016-05-30T19:41:44.776Z,87.66
2016-05-30T19:42:44.764Z,87.23
2016-05-30T19:43:44.767Z,85.88
2016-05-30T19:44:44.753Z,85.6
2016-05-30T19:45:44.741Z,86.08
2016-05-30T19:46:44.727Z,85.5
2016-05-30T19:47:44.731Z,85.69
2016-05-30T19:48:44.733Z,86.36
2016-05-30T19:49:44.720Z,86.65
2016-05-30T19:50:44.708Z,85.78
2016-05-30T19:51:44.538Z,85.02
2016-05-30T19:52:45.681Z,85.02
2016-05-30T19:53:44.684Z,84.34
2016-05-30T19:54:44.515Z,84.34
2016-05-30T19:55:44.674Z,83.96
2016-05-30T19:56:44.488Z,83.73
2016-05-30T19:57:44.649Z,84.63
2016-05-30T19:58:44.635Z,84.16
2016-05-30T19:59:44.465Z,84.01
2016-05-30T20:00:44.624Z,84.01
2016-05-30T20:01:47.377Z,84.3
2016-05-30T20:02:44.599Z,84.69
2016-05-30T20:03:44.585Z,85.17
2016-05-30T20:04:44.573Z,84.21
2016-05-30T20:05:44.576Z,84.3
2016-05-30T20:06:44.578Z,84.78
2016-05-30T20:07:44.925Z,85.17
2016-05-30T20:08:44.553Z,85.27
2016-05-30T20:09:44.540Z,84.98
2016-05-30T20:10:44.526Z,85.17
2016-05-30T20:11:44.529Z,85.84
2016-05-30T20:12:44.517Z,85.84
2016-05-30T20:13:44.348Z,86.09
2016-05-30T20:14:44.490Z,86.38
2016-05-30T20:15:44.492Z,86.57
2016-05-30T20:16:44.480Z,87.15
2016-05-30T20:17:44.468Z,86.85
2016-05-30T20:18:44.470Z,86.95
2016-05-30T20:19:44.503Z,87.62
2016-05-30T20:20:44.444Z,88.2
2016-05-30T20:21:44.431Z,87.62
2016-05-30T20:22:44.840Z,87.53
2016-05-30T20:23:44.422Z,88.2
2016-05-30T20:24:44.236Z,88.59
2016-05-30T20:25:44.394Z,88.64
2016-05-30T20:26:44.382Z,89.31
2016-05-30T20:27:44.369Z,88.73
2016-05-30T20:28:44.372Z,88.73
2016-05-30T20:29:44.359Z,88.64
2016-05-30T20:30:44.347Z,89.02
2016-05-30T20:31:44.349Z,88.54
2016-05-30T20:32:44.321Z,88.83
2016-05-30T20:33:44.307Z,89.6
2016-05-30T20:34:44.294Z,88.64
2016-05-30T20:35:44.296Z,88.64
2016-05-30T20:36:44.284Z,88.64
2016-05-30T20:37:44.287Z,89.5
2016-05-30T20:38:44.712Z,89.79
2016-05-30T20:39:44.261Z,89.6
2016-05-30T20:40:44.248Z,89.5
2016-05-30T20:41:44.235Z,89.12
2016-05-30T20:42:44.238Z,89.31
2016-05-30T20:43:44.225Z,89.12
2016-05-30T20:44:44.212Z,89.12
2016-05-30T20:45:44.198Z,89.79
2016-05-30T20:46:44.201Z,89.31
2016-05-30T20:47:44.173Z,89.31
2016-05-30T20:48:44.770Z,89.69
2016-05-30T20:49:44.023Z,89.5
2016-05-30T20:50:44.152Z,89.31
2016-05-30T20:51:44.175Z,89.12
2016-05-30T20:52:44.028Z,89.02
2016-05-30T20:53:44.193Z,89.02
2016-05-30T20:54:44.201Z,89.02
2016-05-30T20:55:44.208Z,89.12
2016-05-30T20:56:44.220Z,88.35
2016-05-30T20:57:44.215Z,88.39
2016-05-30T20:58:44.210Z,89.16
2016-05-30T20:59:44.205Z,89.36
2016-05-30T21:00:44.215Z,88.87
2016-05-30T21:01:44.189Z,89.36
2016-05-30T21:02:44.195Z,89.36
2016-05-30T21:03:44.185Z,89.98
2016-05-30T21:04:44.190Z,89.64
2016-05-30T21:05:44.180Z,89.16
2016-05-30T21:06:44.167Z,89.5
2016-05-30T21:07:44.032Z,89.79
2016-05-30T21:08:44.191Z,89.02
2016-05-30T21:09:44.133Z,88.64
2016-05-30T21:10:44.121Z,89.02
2016-05-30T21:11:44.124Z,87.39
2016-05-30T21:12:44.111Z,87.05
2016-05-30T21:13:44.099Z,87.1
2016-05-30T21:14:44.102Z,86.62
2016-05-30T21:15:44.089Z,86.76
2016-05-30T21:16:44.076Z,86.95
2016-05-30T21:17:44.064Z,87.05
2016-05-30T21:18:44.066Z,86.85
2016-05-30T21:19:43.897Z,86.85
2016-05-30T21:20:44.041Z,87.43
2016-05-30T21:21:44.044Z,86.57
2016-05-30T21:22:44.452Z,85.89
2016-05-30T21:23:43.861Z,86.18
2016-05-30T21:24:44.004Z,86.47
2016-05-30T21:25:44.007Z,86.47
2016-05-30T21:26:43.994Z,87.24
2016-05-30T21:27:43.980Z,87.72
2016-05-30T21:28:43.968Z,86.85
2016-05-30T21:29:43.955Z,86.95
2016-05-30T21:30:43.801Z,87.39
2016-05-30T21:31:43.930Z,87.87
2016-05-30T21:32:43.776Z,87.29
2016-05-30T21:33:43.918Z,87.29
2016-05-30T21:34:43.907Z,86.81
2016-05-30T21:35:43.893Z,87.01
2016-05-30T21:36:43.880Z,86.52
2016-05-30T21:37:43.742Z,86.81
2016-05-30T21:38:43.714Z,86.52
2016-05-30T21:39:43.904Z,87.01
2016-05-30T21:40:43.688Z,87.1
2016-05-30T21:41:43.848Z,85.95
2016-05-30T21:42:43.834Z,86.52
2016-05-30T21:43:43.820Z,86.05
2016-05-30T21:44:43.823Z,85.85
2016-05-30T21:45:43.795Z,86.72
2016-05-30T21:46:43.798Z,86.24
2016-05-30T21:47:43.628Z,86.72
2016-05-30T21:48:43.772Z,85.75
2016-05-30T21:49:43.603Z,86.24
2016-05-30T21:50:43.746Z,86.33
2016-05-30T21:51:43.733Z,86.72
2016-05-30T21:52:44.345Z,86.62
2016-05-30T21:53:43.723Z,86.62
2016-05-30T21:54:43.710Z,86.72
2016-05-30T21:55:43.697Z,86.81
2016-05-30T21:56:43.683Z,86.72
2016-05-30T21:57:43.686Z,86.81
2016-05-30T21:58:43.674Z,86.62
2016-05-30T21:59:43.661Z,86.91
2016-05-30T22:00:43.491Z,86.91
2016-05-30T22:01:43.635Z,86.72
2016-05-30T22:02:43.637Z,87.1
2016-05-30T22:03:43.624Z,86.91
2016-05-30T22:04:43.612Z,86.91
2016-05-30T22:05:43.598Z,87.58
2016-05-30T22:06:43.585Z,87.49
2016-05-30T22:07:44.338Z,86.81
2016-05-30T22:08:43.576Z,87.01
2016-05-30T22:09:43.563Z,86.72
2016-05-30T22:10:43.565Z,86.81
2016-05-30T22:11:43.537Z,87.1
2016-05-30T22:12:43.540Z,86.96
2016-05-30T22:13:43.526Z,87.58
2016-05-30T22:14:43.513Z,87.15
2016-05-30T22:15:43.501Z,87.54
2016-05-30T22:16:43.503Z,87.92
2016-05-30T22:17:43.490Z,88.4
2016-05-30T22:18:43.477Z,88.31
2016-05-30T22:19:43.464Z,88.49
2016-05-30T22:20:43.467Z,88.59
2016-05-30T22:21:43.454Z,88.98
2016-05-30T22:22:43.286Z,88.59
2016-05-30T22:23:43.428Z,88.69
2016-05-30T22:24:43.415Z,88.69
2016-05-30T22:25:43.402Z,89.26
2016-05-30T22:26:43.390Z,89.17
2016-05-30T22:27:43.377Z,89.55
2016-05-30T22:28:43.379Z,89.22
2016-05-30T22:29:43.366Z,89.26
2016-05-30T22:30:43.354Z,89.61
2016-05-30T22:31:43.340Z,89.65
2016-05-30T22:32:43.327Z,89.79
2016-05-30T22:33:43.330Z,89.12
2016-05-30T22:34:43.317Z,89.12
2016-05-30T22:35:43.304Z,89.79
2016-05-30T22:36:43.307Z,89.51
2016-05-30T22:37:44.498Z,89.79
2016-05-30T22:38:43.266Z,89.7
2016-05-30T22:39:43.112Z,89.61
2016-05-30T22:40:43.240Z,89.7
2016-05-30T22:41:43.243Z,89.51
2016-05-30T22:42:43.229Z,89.89
2016-05-30T22:43:43.232Z,89.89
2016-05-30T22:44:43.203Z,89.7
2016-05-30T22:45:43.191Z,89.7
2016-05-30T22:46:43.397Z,90.28
2016-05-30T22:47:43.024Z,90.08
2016-05-30T22:48:43.167Z,90.18
2016-05-30T22:49:43.155Z,90.28
2016-05-30T22:50:43.142Z,90.08
2016-05-30T22:51:43.128Z,90.18
2016-05-30T22:52:43.350Z,89.7
2016-05-30T22:53:43.119Z,89.89
2016-05-30T22:54:43.106Z,89.89
2016-05-30T22:55:43.093Z,89.61
2016-05-30T22:56:43.080Z,90.18
2016-05-30T22:57:43.067Z,89.89
2016-05-30T22:58:43.069Z,89.61
2016-05-30T22:59:43.057Z,90.47
2016-05-30T23:00:43.060Z,90.28
2016-05-30T23:01:43.031Z,90.47
2016-05-30T23:02:43.018Z,90.28
2016-05-30T23:03:43.004Z,89.79
2016-05-30T23:04:42.991Z,89.99
2016-05-30T23:05:42.994Z,90.47
2016-05-30T23:06:42.982Z,89.99
2016-05-30T23:07:43.000Z,90.18
2016-05-30T23:08:43.159Z,90.47
2016-05-30T23:09:42.959Z,89.79
2016-05-30T23:10:42.930Z,89.89
2016-05-30T23:11:42.932Z,90.28
2016-05-30T23:12:42.920Z,89.89
2016-05-30T23:13:42.907Z,90.18
2016-05-30T23:14:42.909Z,90.47
2016-05-30T23:15:42.881Z,89.79
2016-05-30T23:16:42.883Z,89.89
2016-05-30T23:17:42.871Z,89.7
2016-05-30T23:18:42.858Z,89.79
2016-05-30T23:19:42.845Z,89.12
2016-05-30T23:20:42.832Z,89.32
2016-05-30T23:21:42.819Z,89.61
2016-05-30T23:22:42.647Z,89.7
2016-05-30T23:23:42.792Z,90.18
2016-05-30T23:24:42.777Z,89.7
2016-05-30T23:25:42.781Z,89.12
2016-05-30T23:26:42.767Z,89.12
2016-05-30T23:27:42.754Z,89.03
2016-05-30T23:28:42.742Z,89.32
2016-05-30T23:29:42.744Z,89.32
2016-05-30T23:30:42.731Z,89.7
2016-05-30T23:31:42.718Z,90.18
2016-05-30T23:32:42.721Z,89.7
2016-05-30T23:33:42.536Z,89.99
2016-05-30T23:34:42.680Z,89.79
2016-05-30T23:35:42.666Z,90.47
2016-05-30T23:36:42.512Z,90.18
2016-05-30T23:37:42.499Z,90.47
2016-05-30T23:38:42.644Z,90.47
2016-05-30T23:39:42.630Z,90.66
2016-05-30T23:40:42.460Z,90.9
2016-05-30T23:41:42.604Z,90.81
2016-05-30T23:42:42.591Z,90.81
2016-05-30T23:43:42.593Z,91.28
2016-05-30T23:44:42.582Z,90.71
2016-05-30T23:45:42.584Z,90.9
2016-05-30T23:46:42.570Z,91.28
2016-05-30T23:47:42.543Z,92.15
2016-05-30T23:48:42.529Z,92.05
2016-05-30T23:49:42.376Z,92.24
2016-05-30T23:50:42.520Z,92.34
2016-05-30T23:51:42.506Z,92.05
2016-05-30T23:52:42.743Z,93.06
2016-05-30T23:53:42.480Z,92.68
2016-05-30T23:54:42.467Z,93.06
2016-05-30T23:55:42.470Z,93.06
2016-05-30T23:56:42.457Z,92.87
2016-05-30T23:57:42.444Z,93.54
2016-05-30T23:58:42.431Z,93.54
2016-05-30T23:59:42.418Z,93.83
